createdAt,value
2022-10-17T00:02:13.612Z,27.02
2022-10-17T00:04:46.313Z,27.20
2022-10-17T00:07:18.828Z,28.88
2022-10-17T00:09:51.536Z,27.02
2022-10-17T00:12:24.024Z,29.98
2022-10-17T00:14:56.956Z,27.30
2022-10-17T00:17:29.880Z,27.30
2022-10-17T00:20:03.232Z,28.58
2022-10-17T00:25:13.348Z,26.67
2022-10-17T00:27:45.932Z,23.55
2022-10-17T00:30:18.646Z,25.80
2022-10-17T00:32:51.148Z,28.15
2022-10-17T00:35:23.812Z,23.83
2022-10-17T00:37:56.272Z,28.73
2022-10-17T00:40:29.012Z,27.80
2022-10-17T00:43:01.476Z,27.05
2022-10-17T00:45:34.192Z,27.60
2022-10-17T00:48:11.524Z,32.60
2022-10-17T00:50:48.756Z,29.90
2022-10-17T00:53:21.297Z,26.67
2022-10-17T00:55:54.632Z,30.42
2022-10-17T00:58:27.246Z,29.42
2022-10-17T01:01:00.565Z,25.10
2022-10-17T01:03:33.112Z,28.48
2022-10-17T01:06:05.965Z,28.25
2022-10-17T01:08:38.756Z,27.70
2022-10-17T01:11:56.320Z,25.58
2022-10-17T01:14:57.680Z,30.05
2022-10-17T01:17:37.458Z,25.92
2022-10-17T01:20:32.240Z,32.03
2022-10-17T01:23:28.743Z,29.10
2022-10-17T01:26:23.105Z,25.65
2022-10-17T01:29:09.021Z,28.88
2022-10-17T01:31:54.760Z,29.90
2022-10-17T01:34:45.024Z,29.63
2022-10-17T01:37:34.464Z,28.52
2022-10-17T01:40:20.362Z,31.52
2022-10-17T01:43:21.102Z,35.75
2022-10-17T01:46:23.992Z,39.03
2022-10-17T01:49:00.684Z,36.33
2022-10-17T01:51:42.308Z,31.55
2022-10-17T01:54:23.903Z,32.58
2022-10-17T01:57:01.579Z,32.22
2022-10-17T01:59:41.921Z,29.67
2022-10-17T02:02:16.135Z,34.85
2022-10-17T02:04:51.543Z,36.72
2022-10-17T02:07:24.447Z,38.95
2022-10-17T02:09:56.928Z,38.30
2022-10-17T02:12:41.340Z,33.38
2022-10-17T02:15:46.767Z,37.15
2022-10-17T02:18:28.462Z,33.13
2022-10-17T02:21:14.589Z,32.35
2022-10-17T02:24:31.724Z,39.50
2022-10-17T02:27:15.122Z,33.35
2022-10-17T02:29:56.094Z,28.25
2022-10-17T02:32:40.655Z,31.42
2022-10-17T02:35:15.766Z,31.05
2022-10-17T02:37:49.117Z,28.90
2022-10-17T02:40:24.223Z,25.33
2022-10-17T02:42:58.557Z,27.83
2022-10-17T02:45:36.024Z,32.17
2022-10-17T02:48:27.813Z,27.73
2022-10-17T02:51:27.893Z,32.58
2022-10-17T02:54:03.395Z,32.17
2022-10-17T02:56:44.117Z,36.97
2022-10-17T02:59:20.342Z,32.45
2022-10-17T03:01:53.471Z,30.05
2022-10-17T03:04:25.953Z,41.58
2022-10-17T03:06:58.989Z,39.38
2022-10-17T03:09:31.444Z,39.78
2022-10-17T03:12:05.318Z,40.80
2022-10-17T03:14:37.817Z,45.70
2022-10-17T03:17:10.485Z,43.08
2022-10-17T03:19:43.041Z,36.85
2022-10-17T03:22:15.727Z,38.58
2022-10-17T03:24:48.173Z,42.47
2022-10-17T03:27:21.169Z,39.00
2022-10-17T03:29:53.661Z,37.20
2022-10-17T03:32:26.378Z,35.17
2022-10-17T03:34:58.859Z,35.72
2022-10-17T03:37:31.801Z,34.22
2022-10-17T03:40:04.891Z,30.27
2022-10-17T03:42:37.588Z,36.75
2022-10-17T03:45:10.404Z,30.40
2022-10-17T03:47:43.130Z,38.50
2022-10-17T03:50:15.740Z,33.85
2022-10-17T03:52:49.498Z,42.10
2022-10-17T03:55:22.021Z,34.17
2022-10-17T03:57:54.741Z,28.40
2022-10-17T04:00:27.287Z,30.98
2022-10-17T04:03:00.190Z,32.92
2022-10-17T04:05:32.664Z,27.73
2022-10-17T04:08:05.712Z,29.45
2022-10-17T04:10:38.608Z,31.17
2022-10-17T04:13:11.532Z,32.65
2022-10-17T04:15:54.832Z,35.08
2022-10-17T04:18:27.836Z,31.05
2022-10-17T04:21:04.508Z,32.35
2022-10-17T04:23:37.268Z,31.15
2022-10-17T04:26:09.728Z,29.00
2022-10-17T04:28:42.423Z,30.58
2022-10-17T04:31:15.364Z,29.88
2022-10-17T04:33:49.200Z,32.70
2022-10-17T04:36:23.052Z,36.10
2022-10-17T04:38:55.724Z,27.67
2022-10-17T04:41:28.184Z,29.95
2022-10-17T04:44:00.922Z,28.17
2022-10-17T04:46:34.795Z,25.08
2022-10-17T04:49:07.992Z,32.03
2022-10-17T04:51:40.565Z,35.08
2022-10-17T04:54:13.564Z,29.70
2022-10-17T04:56:47.219Z,34.03
2022-10-17T04:59:19.922Z,35.47
2022-10-17T05:01:52.376Z,36.80
2022-10-17T05:04:25.585Z,32.15
2022-10-17T05:06:58.054Z,30.92
2022-10-17T05:09:30.991Z,36.78
2022-10-17T05:12:05.465Z,28.20
2022-10-17T05:14:40.775Z,28.17
2022-10-17T05:17:13.263Z,31.35
2022-10-17T05:19:46.099Z,25.10
2022-10-17T05:22:18.538Z,29.65
2022-10-17T05:24:51.209Z,35.35
2022-10-17T05:27:23.701Z,26.73
2022-10-17T05:29:56.339Z,32.55
2022-10-17T05:32:29.119Z,31.00
2022-10-17T05:35:04.267Z,32.30
2022-10-17T05:37:36.793Z,40.10
2022-10-17T05:40:10.014Z,33.70
2022-10-17T05:42:49.402Z,36.38
2022-10-17T05:45:23.604Z,34.25
2022-10-17T05:47:56.068Z,35.80
2022-10-17T05:50:28.884Z,34.65
2022-10-17T05:53:01.831Z,39.80
2022-10-17T05:55:34.558Z,43.25
2022-10-17T05:58:07.417Z,37.33
2022-10-17T06:00:42.389Z,33.35
2022-10-17T06:03:23.681Z,35.13
2022-10-17T06:05:57.035Z,36.10
2022-10-17T06:08:29.498Z,32.25
2022-10-17T06:11:07.537Z,35.53
2022-10-17T06:14:02.054Z,30.92
2022-10-17T06:16:40.161Z,33.08
2022-10-17T06:19:12.705Z,34.60
2022-10-17T06:21:45.381Z,38.05
2022-10-17T06:24:17.873Z,36.78
2022-10-17T06:26:51.206Z,43.05
2022-10-17T06:29:23.685Z,37.28
2022-10-17T06:31:56.501Z,42.60
2022-10-17T06:34:29.001Z,32.45
2022-10-17T06:37:01.846Z,42.05
2022-10-17T06:39:35.949Z,43.42
2022-10-17T06:42:08.709Z,39.05
2022-10-17T06:44:41.305Z,40.35
2022-10-17T06:47:16.588Z,44.05
2022-10-17T06:49:51.810Z,42.67
2022-10-17T06:52:24.526Z,47.38
2022-10-17T06:54:57.053Z,49.88
2022-10-17T06:57:30.112Z,44.15
2022-10-17T07:00:04.265Z,49.63
2022-10-17T07:02:37.031Z,53.33
2022-10-17T07:05:10.089Z,48.83
2022-10-17T07:07:44.772Z,50.92
2022-10-17T07:10:18.949Z,51.58
2022-10-17T07:12:51.712Z,53.90
2022-10-17T07:15:24.182Z,44.35
2022-10-17T07:17:57.528Z,47.00
2022-10-17T07:20:30.406Z,45.45
2022-10-17T07:23:03.431Z,49.17
2022-10-17T07:25:40.023Z,47.03
2022-10-17T07:28:14.750Z,45.42
2022-10-17T07:30:50.691Z,47.00
2022-10-17T07:33:26.329Z,50.10
2022-10-17T07:36:00.235Z,45.33
2022-10-17T07:38:33.412Z,43.60
2022-10-17T07:41:07.692Z,48.47
2022-10-17T07:43:41.793Z,42.60
2022-10-17T07:46:14.360Z,45.42
2022-10-17T07:48:47.160Z,47.20
2022-10-17T07:51:20.239Z,48.72
2022-10-17T07:53:53.053Z,48.88
2022-10-17T07:56:25.498Z,43.72
2022-10-17T07:58:58.364Z,43.95
2022-10-17T08:01:31.776Z,45.95
2022-10-17T08:04:04.493Z,45.92
2022-10-17T08:06:36.980Z,43.28
2022-10-17T08:09:09.770Z,41.30
2022-10-17T08:11:44.081Z,40.70
2022-10-17T08:14:19.841Z,45.38
2022-10-17T08:16:54.923Z,48.38
2022-10-17T08:19:27.693Z,71.75
2022-10-17T08:22:01.244Z,59.45
2022-10-17T08:24:34.000Z,61.40
2022-10-17T08:27:11.474Z,43.35
2022-10-17T08:29:48.415Z,45.40
2022-10-17T08:32:26.542Z,40.58
2022-10-17T08:34:59.368Z,42.47
2022-10-17T08:37:32.767Z,45.78
2022-10-17T08:40:06.721Z,35.80
2022-10-17T08:42:54.422Z,45.50
2022-10-17T08:45:33.872Z,42.38
2022-10-17T08:48:12.655Z,42.22
2022-10-17T08:50:51.396Z,42.63
2022-10-17T08:53:48.905Z,41.30
2022-10-17T08:56:44.182Z,41.58
2022-10-17T08:59:28.842Z,43.70
2022-10-17T09:02:40.217Z,40.33
2022-10-17T09:05:34.949Z,37.20
2022-10-17T09:08:40.215Z,38.38
2022-10-17T09:11:41.871Z,42.50
2022-10-17T09:14:36.208Z,37.97
2022-10-17T09:17:13.832Z,36.65
2022-10-17T09:20:10.384Z,40.28
2022-10-17T09:25:42.992Z,40.72
2022-10-17T09:28:36.535Z,41.22
2022-10-17T09:31:23.182Z,41.95
2022-10-17T09:33:58.081Z,38.78
2022-10-17T09:36:36.967Z,39.75
2022-10-17T09:39:18.817Z,35.10
2022-10-17T09:41:59.547Z,41.25
2022-10-17T09:44:34.724Z,37.55
2022-10-17T09:47:16.004Z,37.90
2022-10-17T09:49:49.257Z,37.65
2022-10-17T09:52:33.229Z,38.83
2022-10-17T09:55:21.455Z,42.22
2022-10-17T09:58:05.468Z,35.25
2022-10-17T10:00:45.518Z,36.28
2022-10-17T10:03:21.159Z,40.42
2022-10-17T10:06:04.270Z,40.20
2022-10-17T10:08:51.671Z,37.47
2022-10-17T10:11:44.009Z,37.13
2022-10-17T10:14:40.777Z,36.80
2022-10-17T10:17:39.626Z,35.85
2022-10-17T10:20:34.248Z,38.53
2022-10-17T10:23:21.466Z,42.22
2022-10-17T10:25:56.268Z,33.65
2022-10-17T10:28:33.096Z,32.67
2022-10-17T10:31:10.023Z,34.83
2022-10-17T10:33:48.082Z,32.75
2022-10-17T10:36:23.589Z,34.40
2022-10-17T10:39:01.268Z,34.60
2022-10-17T10:41:48.216Z,40.17
2022-10-17T10:44:26.886Z,37.05
2022-10-17T10:47:17.317Z,36.40
2022-10-17T10:49:52.752Z,32.63
2022-10-17T10:52:41.543Z,32.92
2022-10-17T10:55:27.955Z,31.25
2022-10-17T10:58:15.531Z,30.27
2022-10-17T11:00:49.713Z,27.65
2022-10-17T11:03:29.272Z,28.13
2022-10-17T11:06:12.775Z,36.15
2022-10-17T11:09:11.536Z,28.50
2022-10-17T11:12:15.276Z,33.13
2022-10-17T11:15:09.596Z,28.08
2022-10-17T11:18:23.852Z,32.90
2022-10-17T11:20:59.091Z,25.58
2022-10-17T11:23:48.023Z,27.33
2022-10-17T11:26:32.391Z,29.42
2022-10-17T11:29:08.222Z,29.92
2022-10-17T11:31:47.407Z,28.23
2022-10-17T11:34:29.274Z,28.80
2022-10-17T11:37:09.591Z,30.40
2022-10-17T11:39:54.095Z,28.92
2022-10-17T11:42:33.831Z,32.90
2022-10-17T11:45:15.931Z,25.50
2022-10-17T11:47:58.378Z,25.40
2022-10-17T11:53:45.404Z,30.08
2022-10-17T11:56:26.745Z,27.85
2022-10-17T11:59:32.938Z,31.63
2022-10-17T12:02:11.779Z,28.48
2022-10-17T12:05:05.728Z,26.43
2022-10-17T12:08:00.201Z,32.97
2022-10-17T12:10:58.256Z,30.05
2022-10-17T12:13:33.678Z,24.88
2022-10-17T12:16:29.596Z,25.23
2022-10-17T12:19:02.050Z,28.75
2022-10-17T12:21:57.791Z,27.85
2022-10-17T12:24:45.403Z,27.77
2022-10-17T12:27:36.018Z,23.67
2022-10-17T12:30:20.944Z,27.60
2022-10-17T12:33:07.435Z,26.00
2022-10-17T12:35:40.552Z,22.23
2022-10-17T12:38:18.978Z,24.88
2022-10-17T12:40:54.592Z,27.08
2022-10-17T12:43:30.290Z,24.08
2022-10-17T12:46:05.214Z,27.92
2022-10-17T12:48:37.866Z,24.45
2022-10-17T12:51:40.510Z,28.48
2022-10-17T12:54:15.867Z,23.65
2022-10-17T12:56:49.740Z,29.92
2022-10-17T12:59:25.841Z,26.17
2022-10-17T13:02:01.791Z,25.77
2022-10-17T13:04:36.980Z,22.52
2022-10-17T13:07:19.944Z,26.20
2022-10-17T13:09:53.048Z,21.80
2022-10-17T13:12:27.535Z,35.97
2022-10-17T13:15:00.983Z,37.10
2022-10-17T13:17:34.889Z,25.25
2022-10-17T13:20:31.538Z,22.40
2022-10-17T13:23:25.824Z,24.27
2022-10-17T13:26:10.619Z,22.83
2022-10-17T13:28:44.032Z,21.58
2022-10-17T13:31:30.078Z,22.10
2022-10-17T13:34:05.727Z,20.38
2022-10-17T13:36:38.543Z,20.48
2022-10-17T13:39:17.197Z,17.38
2022-10-17T13:41:56.736Z,27.67
2022-10-17T13:44:33.988Z,23.25
2022-10-17T13:47:06.810Z,16.92
2022-10-17T13:49:44.320Z,19.92
2022-10-17T13:52:25.170Z,24.40
2022-10-17T13:55:17.570Z,20.58
2022-10-17T13:57:52.428Z,21.42
2022-10-17T14:00:25.170Z,19.38
2022-10-17T14:02:57.980Z,20.80
2022-10-17T14:05:30.456Z,19.67
2022-10-17T14:08:14.511Z,19.15
2022-10-17T14:10:49.506Z,18.15
2022-10-17T14:13:25.942Z,19.48
2022-10-17T14:16:01.964Z,19.40
2022-10-17T14:18:37.047Z,21.67
2022-10-17T14:24:20.979Z,19.40
2022-10-17T14:26:59.477Z,22.25
2022-10-17T14:29:50.026Z,17.23
2022-10-17T14:32:22.840Z,17.83
2022-10-17T14:35:10.575Z,24.45
2022-10-17T14:37:53.055Z,19.15
2022-10-17T14:40:28.051Z,18.23
2022-10-17T14:43:05.180Z,20.30
2022-10-17T14:45:39.754Z,20.75
2022-10-17T14:48:15.145Z,31.15
2022-10-17T14:51:10.732Z,19.75
2022-10-17T14:54:23.708Z,18.38
2022-10-17T14:56:56.427Z,21.88
2022-10-17T14:59:53.302Z,20.33
2022-10-17T15:02:22.135Z,21.58
2022-10-17T15:04:55.141Z,23.92
2022-10-17T15:07:27.929Z,23.48
2022-10-17T15:10:00.429Z,22.05
2022-10-17T15:12:33.254Z,25.10
2022-10-17T15:15:06.228Z,21.23
2022-10-17T15:17:39.448Z,20.98
2022-10-17T15:20:17.096Z,26.25
2022-10-17T15:22:49.816Z,22.75
2022-10-17T15:25:25.484Z,24.48
2022-10-17T15:27:59.140Z,23.77
2022-10-17T15:30:35.698Z,24.35
2022-10-17T15:33:08.421Z,29.27
2022-10-17T15:35:43.907Z,27.48
2022-10-17T15:38:20.636Z,22.98
2022-10-17T15:40:56.229Z,24.48
2022-10-17T15:43:33.621Z,26.85
2022-10-17T15:46:15.046Z,34.35
2022-10-17T15:48:50.956Z,27.50
2022-10-17T15:51:23.636Z,32.28
2022-10-17T15:53:56.585Z,35.25
2022-10-17T15:56:38.392Z,25.33
2022-10-17T15:59:22.723Z,28.02
2022-10-17T16:01:55.250Z,30.95
2022-10-17T16:04:29.227Z,34.70
2022-10-17T16:07:01.732Z,28.83
2022-10-17T16:09:34.938Z,30.23
2022-10-17T16:12:14.177Z,30.33
2022-10-17T16:14:46.922Z,27.75
2022-10-17T16:17:19.471Z,30.35
2022-10-17T16:19:52.232Z,28.17
2022-10-17T16:22:32.656Z,30.48
2022-10-17T16:25:09.864Z,28.55
2022-10-17T16:27:42.432Z,28.75
2022-10-17T16:30:15.885Z,34.08
2022-10-17T16:32:48.881Z,33.95
2022-10-17T16:35:24.443Z,31.45
2022-10-17T16:37:57.913Z,32.17
2022-10-17T16:40:30.605Z,43.22
2022-10-17T16:43:03.091Z,31.70
2022-10-17T16:45:36.638Z,38.75
2022-10-17T16:48:09.715Z,33.70
2022-10-17T16:50:42.663Z,30.90
2022-10-17T16:53:15.225Z,34.15
2022-10-17T16:55:59.780Z,34.42
2022-10-17T16:58:32.464Z,34.45
2022-10-17T17:01:08.876Z,37.45
2022-10-17T17:03:43.665Z,30.23
2022-10-17T17:06:22.215Z,36.78
2022-10-17T17:08:56.092Z,34.03
2022-10-17T17:11:29.351Z,33.22
2022-10-17T17:14:02.681Z,34.28
2022-10-17T17:16:35.987Z,36.30
2022-10-17T17:19:14.291Z,40.42
2022-10-17T17:21:52.817Z,42.60
2022-10-17T17:24:25.873Z,46.67
2022-10-17T17:26:58.593Z,45.25
2022-10-17T17:29:31.216Z,36.08
2022-10-17T17:32:04.016Z,46.08
2022-10-17T17:34:37.732Z,41.65
2022-10-17T17:37:10.783Z,41.60
2022-10-17T17:39:43.427Z,39.22
2022-10-17T17:42:16.139Z,41.63
2022-10-17T17:44:49.642Z,48.30
2022-10-17T17:47:22.417Z,40.38
2022-10-17T17:49:54.877Z,41.25
2022-10-17T17:52:27.743Z,46.83
2022-10-17T17:55:00.377Z,38.42
2022-10-17T17:57:33.185Z,53.67
2022-10-17T18:00:06.618Z,44.15
2022-10-17T18:02:42.214Z,42.60
2022-10-17T18:05:17.063Z,47.25
2022-10-17T18:07:49.888Z,43.70
2022-10-17T18:10:22.669Z,41.17
2022-10-17T18:12:55.858Z,48.20
2022-10-17T18:15:29.866Z,46.08
2022-10-17T18:18:02.583Z,46.38
2022-10-17T18:20:36.175Z,46.13
2022-10-17T18:23:10.108Z,45.95
2022-10-17T18:25:42.654Z,46.53
2022-10-17T18:28:15.675Z,52.75
2022-10-17T18:30:54.174Z,46.63
2022-10-17T18:33:26.879Z,44.67
2022-10-17T18:36:07.337Z,46.97
2022-10-17T18:38:40.296Z,47.90
2022-10-17T18:41:15.566Z,48.58
2022-10-17T18:43:50.117Z,49.75
2022-10-17T18:46:29.443Z,52.10
2022-10-17T18:49:03.160Z,50.47
2022-10-17T18:51:35.936Z,56.80
2022-10-17T18:54:14.398Z,50.30
2022-10-17T18:56:52.155Z,52.28
2022-10-17T18:59:25.023Z,42.85
2022-10-17T19:01:57.609Z,49.13
2022-10-17T19:04:30.603Z,47.83
2022-10-17T19:07:03.082Z,44.15
2022-10-17T19:09:35.832Z,52.58
2022-10-17T19:12:08.386Z,52.95
2022-10-17T19:14:41.205Z,49.72
2022-10-17T19:17:13.673Z,54.83
2022-10-17T19:19:50.152Z,48.22
2022-10-17T19:22:22.676Z,43.38
2022-10-17T19:24:55.372Z,50.20
2022-10-17T19:27:28.053Z,49.97
2022-10-17T19:30:01.109Z,50.40
2022-10-17T19:32:34.071Z,47.55
2022-10-17T19:35:07.443Z,55.13
2022-10-17T19:37:40.464Z,52.30
2022-10-17T19:40:14.153Z,53.72
2022-10-17T19:42:47.322Z,53.05
2022-10-17T19:45:20.033Z,52.28
2022-10-17T19:47:52.580Z,44.58
2022-10-17T19:50:25.269Z,50.67
2022-10-17T19:52:58.100Z,52.78
2022-10-17T19:55:32.976Z,54.28
2022-10-17T19:58:05.585Z,49.67
2022-10-17T20:00:38.339Z,53.25
2022-10-17T20:03:10.845Z,52.20
2022-10-17T20:05:43.944Z,51.00
2022-10-17T20:08:17.220Z,46.97
2022-10-17T20:10:49.951Z,53.88
2022-10-17T20:13:25.905Z,52.53
2022-10-17T20:15:59.595Z,46.88
2022-10-17T20:18:37.925Z,44.90
2022-10-17T20:21:13.929Z,44.92
2022-10-17T20:23:49.063Z,54.72
2022-10-17T20:26:39.622Z,57.80
2022-10-17T20:29:20.608Z,48.83
2022-10-17T20:32:00.986Z,51.25
2022-10-17T20:34:35.670Z,53.47
2022-10-17T20:37:42.820Z,47.63
2022-10-17T20:40:35.411Z,43.05
2022-10-17T20:43:10.944Z,46.40
2022-10-17T20:45:51.200Z,43.60
2022-10-17T20:48:26.731Z,44.10
2022-10-17T20:50:59.211Z,45.70
2022-10-17T20:53:36.978Z,40.85
2022-10-17T20:56:21.105Z,46.15
2022-10-17T20:59:00.029Z,40.85
2022-10-17T21:01:34.287Z,42.63
2022-10-17T21:04:33.368Z,43.78
2022-10-17T21:07:00.293Z,49.25
2022-10-17T21:09:33.258Z,41.28
2022-10-17T21:12:05.807Z,42.78
2022-10-17T21:14:38.794Z,39.17
2022-10-17T21:17:11.297Z,40.13
2022-10-17T21:19:43.953Z,42.05
2022-10-17T21:22:16.837Z,41.05
2022-10-17T21:24:49.532Z,44.28
2022-10-17T21:27:22.047Z,41.67
2022-10-17T21:29:54.723Z,44.00
2022-10-17T21:32:40.446Z,37.83
2022-10-17T21:35:20.380Z,40.35
2022-10-17T21:37:52.868Z,37.63
2022-10-17T21:40:25.833Z,41.25
2022-10-17T21:42:58.355Z,39.53
2022-10-17T21:45:31.027Z,47.30
2022-10-17T21:48:19.179Z,39.97
2022-10-17T21:51:00.213Z,43.53
2022-10-17T21:53:33.267Z,43.80
2022-10-17T21:56:10.290Z,49.25
2022-10-17T21:58:43.088Z,34.70
2022-10-17T22:01:25.868Z,41.28
2022-10-17T22:04:02.212Z,35.47
2022-10-17T22:06:40.197Z,43.20
2022-10-17T22:09:18.872Z,40.97
2022-10-17T22:11:56.741Z,43.15
2022-10-17T22:14:29.314Z,42.03
2022-10-17T22:17:02.022Z,38.03
2022-10-17T22:19:34.554Z,43.88
2022-10-17T22:22:07.275Z,39.97
2022-10-17T22:24:39.859Z,40.95
2022-10-17T22:27:12.517Z,38.85
2022-10-17T22:29:45.011Z,35.65
2022-10-17T22:32:21.506Z,41.45
2022-10-17T22:34:55.115Z,40.72
2022-10-17T22:37:27.899Z,39.72
2022-10-17T22:40:00.463Z,37.35
2022-10-17T22:42:34.561Z,42.25
2022-10-17T22:45:07.444Z,46.15
2022-10-17T22:47:40.082Z,42.83
2022-10-17T22:50:12.588Z,43.53
2022-10-17T22:52:45.231Z,40.58
2022-10-17T22:55:17.867Z,41.67
2022-10-17T22:57:50.620Z,43.13
2022-10-17T23:00:23.186Z,46.42
2022-10-17T23:02:56.133Z,41.08
2022-10-17T23:05:28.969Z,44.28
2022-10-17T23:08:01.669Z,48.13
2022-10-17T23:10:34.462Z,53.22
2022-10-17T23:13:07.236Z,40.70
2022-10-17T23:15:40.215Z,43.88
2022-10-17T23:18:13.024Z,46.28
2022-10-17T23:20:45.708Z,46.17
2022-10-17T23:23:19.079Z,51.72
2022-10-17T23:25:51.642Z,49.40
2022-10-17T23:28:24.365Z,46.95
2022-10-17T23:30:56.936Z,46.08
2022-10-17T23:33:29.582Z,45.78
2022-10-17T23:36:05.301Z,42.33
2022-10-17T23:38:39.371Z,47.15
2022-10-17T23:41:12.375Z,50.85
2022-10-17T23:43:45.177Z,54.95
2022-10-17T23:46:17.666Z,47.78
2022-10-17T23:48:50.637Z,46.22
2022-10-17T23:51:23.529Z,41.00
2022-10-17T23:53:56.453Z,49.03
2022-10-17T23:56:28.898Z,52.45
2022-10-17T23:59:01.700Z,43.38
